Time;durP1;ratioP1;P1;durP2;ratioP2;P2;SDS_P1;SDS_P2;PMS_P1;PMS_P2;Temp;Humidity;BMP_temperature;BMP_pressure;BME280_temperature;BME280_humidity;BME280_pressure;Samples;Min_cycle;Max_cycle;Signal;HPM_P1;HPM_P2
2022/10/29 00:01:12;;;;;;;15.52;10.75;;;;;;;11.24;80.78;99213.34;5074283;28;20016;-72
2022/10/29 00:03:37;;;;;;;21.17;13.35;;;;;;;11.22;80.40;99205.38;5067355;28;20474;-72
2022/10/29 00:06:06;;;;;;;17.92;10.82;;;;;;;11.24;80.51;99213.34;5070339;28;20027;-72
2022/10/29 00:08:34;;;;;;;16.38;10.88;;;;;;;11.20;80.74;99198.53;5067777;28;20036;-71
2022/10/29 00:11:08;;;;;;;19.20;12.27;;;;;;;11.19;80.70;99205.94;5051826;28;20111;-72
2022/10/29 00:13:35;;;;;;;19.95;12.88;;;;;;;11.19;80.89;99214.19;5067017;28;20145;-72
2022/10/29 00:16:09;;;;;;;19.33;12.75;;;;;;;11.18;80.78;99220.78;5071259;28;20992;-72
2022/10/29 00:18:34;;;;;;;19.50;11.80;;;;;;;11.18;80.68;99212.56;5080315;28;20056;-72
2022/10/29 00:21:04;;;;;;;17.60;10.90;;;;;;;11.19;80.52;99221.59;5071390;28;20554;-72
2022/10/29 00:23:29;;;;;;;;;;;;;;;11.17;80.97;99210.91;5067247;28;20028;-72
2022/10/29 00:25:56;;;;;;;19.33;11.40;;;;;;;11.18;80.69;99207.06;5072046;28;19916;-72
2022/10/29 00:28:22;;;;;;;19.35;10.93;;;;;;;11.15;80.66;99200.19;5072380;28;20035;-72
2022/10/29 00:30:47;;;;;;;17.13;10.52;;;;;;;11.12;80.71;99198.00;5048420;28;20029;-72
2022/10/29 00:33:12;;;;;;;15.65;10.02;;;;;;;11.11;81.06;99201.84;5070220;28;20123;-73
2022/10/29 00:35:38;;;;;;;17.23;10.90;;;;;;;11.10;80.45;99204.91;5076629;28;20051;-72
2022/10/29 00:38:03;;;;;;;17.40;10.60;;;;;;;11.09;81.06;99206.81;5069284;28;20029;-72
2022/10/29 00:40:28;;;;;;;16.05;10.48;;;;;;;11.08;81.36;99212.59;5068745;28;20035;-72
2022/10/29 00:43:11;;;;;;;16.52;10.60;;;;;;;11.04;80.95;99201.34;5050229;28;20032;-73
2022/10/29 00:45:40;;;;;;;17.35;10.73;;;;;;;11.06;81.05;99195.56;5069515;28;20067;-72
2022/10/29 00:48:05;;;;;;;16.58;10.00;;;;;;;11.04;80.74;99195.03;5070908;28;20044;-73
2022/10/29 00:50:31;;;;;;;16.50;10.32;;;;;;;11.04;81.38;99193.09;5081025;28;20028;-73
2022/10/29 00:52:57;;;;;;;17.67;10.48;;;;;;;11.03;81.41;99191.44;5082366;28;20024;-73
2022/10/29 00:55:23;;;;;;;16.10;10.02;;;;;;;11.01;81.43;99194.50;5074539;28;20040;-72
2022/10/29 00:57:53;;;;;;;16.08;10.73;;;;;;;11.00;81.47;99190.09;5069759;28;20032;-72
2022/10/29 01:00:19;;;;;;;;;;;;;;;11.00;80.71;99189.28;5067475;28;20036;-72
2022/10/29 01:02:45;;;;;;;16.52;10.75;;;;;;;10.98;81.26;99188.75;5069749;28;19916;-73
2022/10/29 01:05:14;;;;;;;16.92;10.90;;;;;;;10.97;81.26;99182.44;5070344;28;20081;-73
2022/10/29 01:07:40;;;;;;;17.75;11.15;;;;;;;10.97;81.32;99190.66;5066956;28;20203;-73
2022/10/29 01:10:06;;;;;;;16.63;11.07;;;;;;;10.97;81.46;99190.66;5067453;28;20501;-73
2022/10/29 01:12:43;;;;;;;14.55;9.65;;;;;;;10.98;81.34;99191.50;5049464;28;20036;-72
2022/10/29 01:15:17;;;;;;;15.55;10.43;;;;;;;10.97;81.65;99198.09;5062233;28;20513;-73
2022/10/29 01:18:01;;;;;;;15.35;10.38;;;;;;;10.98;80.92;99180.53;5063480;28;20029;-73
2022/10/29 01:21:00;;;;;;;17.98;11.10;;;;;;;10.98;81.68;99184.06;5057199;28;20501;-73
2022/10/29 01:23:46;;;;;;;19.05;11.00;;;;;;;10.97;81.26;99173.38;5057901;28;20514;-72
2022/10/29 01:26:40;;;;;;;14.65;10.48;;;;;;;10.97;81.54;99174.19;5038251;28;20029;-73
2022/10/29 01:29:06;;;;;;;16.02;11.02;;;;;;;10.98;81.52;99175.03;5021088;28;20041;-72
2022/10/29 01:31:36;;;;;;;17.60;11.80;;;;;;;10.97;81.33;99178.88;5063272;28;20073;-73
2022/10/29 01:34:17;;;;;;;19.63;11.07;;;;;;;10.97;81.18;99173.38;5062104;28;20044;-72
2022/10/29 01:36:54;;;;;;;17.23;11.15;;;;;;;10.99;81.43;99179.41;5067752;28;20190;-72
2022/10/29 01:39:29;;;;;;;17.67;10.27;;;;;;;11.00;81.48;99184.63;5055678;28;20121;-72
2022/10/29 01:42:11;;;;;;;18.25;11.30;;;;;;;10.99;81.50;99185.72;5053652;28;20489;-72
2022/10/29 01:45:05;;;;;;;17.42;11.05;;;;;;;11.01;80.96;99183.50;5055714;28;20028;-72
2022/10/29 01:47:38;;;;;;;19.42;11.85;;;;;;;11.01;80.98;99178.03;5047572;28;20120;-73
2022/10/29 01:50:07;;;;;;;16.98;11.70;;;;;;;11.00;81.56;99173.63;5061746;28;20031;-72
2022/10/29 01:52:35;;;;;;;17.20;11.68;;;;;;;11.01;81.35;99172.53;5067152;28;20485;-72
2022/10/29 01:55:02;;;;;;;17.40;11.75;;;;;;;11.02;81.04;99163.19;5072807;28;20071;-72
2022/10/29 01:57:31;;;;;;;17.42;11.98;;;;;;;11.03;81.71;99169.50;5035285;28;20085;-72
2022/10/29 02:00:01;;;;;;;20.55;13.13;;;;;;;11.02;81.24;99174.19;5056588;28;20028;-73
2022/10/29 02:02:50;;;;;;;17.35;11.95;;;;;;;11.02;81.26;99165.09;5060482;28;20618;-73
2022/10/29 02:05:25;;;;;;;19.63;12.75;;;;;;;11.04;81.57;99162.09;5062018;28;20433;-73
2022/10/29 02:08:03;;;;;;;19.70;12.70;;;;;;;11.05;81.83;99166.47;5047204;28;20035;-73
2022/10/29 02:10:31;;;;;;;19.63;12.48;;;;;;;11.05;81.82;99164.53;5066026;28;20085;-72
2022/10/29 02:12:56;;;;;;;21.65;13.65;;;;;;;11.05;81.40;99158.25;5063052;28;20016;-73
2022/10/29 02:15:36;;;;;;;20.17;13.43;;;;;;;11.02;81.63;99143.97;5056088;28;20062;-72
2022/10/29 02:18:05;;;;;;;18.95;13.35;;;;;;;11.02;82.08;99154.97;5059071;28;20020;-73
2022/10/29 02:20:31;;;;;;;22.00;14.45;;;;;;;11.02;81.80;99138.50;5062281;28;20093;-73
2022/10/29 02:22:57;;;;;;;20.92;13.63;;;;;;;11.02;82.00;99138.50;5064847;28;20479;-72
2022/10/29 02:25:22;;;;;;;19.23;13.63;;;;;;;11.04;82.03;99142.88;5055342;28;20029;-73
2022/10/29 02:27:48;;;;;;;21.60;13.77;;;;;;;11.04;82.06;99143.69;5059149;28;20649;-72
2022/10/29 02:30:14;;;;;;;22.67;14.07;;;;;;;11.03;81.57;99144.78;5060890;28;20083;-72
2022/10/29 02:32:40;;;;;;;19.92;13.73;;;;;;;11.03;81.92;99144.78;5044069;28;20493;-73
2022/10/29 02:35:06;;;;;;;19.45;12.85;;;;;;;11.02;81.87;99156.88;5048522;28;20027;-73
2022/10/29 02:37:31;;;;;;;20.83;13.50;;;;;;;11.05;82.43;99166.47;5069842;28;20017;-73
2022/10/29 02:39:58;;;;;;;20.40;13.30;;;;;;;11.07;81.66;99145.06;5069755;28;20048;-73
2022/10/29 02:42:24;;;;;;;19.83;12.90;;;;;;;11.07;82.16;99154.09;5065721;28;20383;-73
2022/10/29 02:44:49;;;;;;;20.65;13.32;;;;;;;11.11;82.45;99141.47;5049210;28;20112;-73
2022/10/29 02:47:15;;;;;;;19.80;13.10;;;;;;;11.13;82.53;99142.00;5049136;28;20451;-72
2022/10/29 02:49:40;;;;;;;20.50;12.95;;;;;;;11.16;81.69;99141.44;5061064;28;20031;-73
2022/10/29 02:52:05;;;;;;;22.20;13.73;;;;;;;11.19;82.38;99133.72;5067462;28;20025;-72
2022/10/29 02:54:31;;;;;;;20.95;13.18;;;;;;;11.19;82.14;99131.00;5070663;28;20430;-72
2022/10/29 02:56:56;;;;;;;21.30;13.70;;;;;;;11.21;82.01;99140.56;5063771;28;20032;-72
2022/10/29 02:59:21;;;;;;;21.65;13.32;;;;;;;11.24;81.45;99151.00;5066981;28;20024;-71
2022/10/29 03:01:47;;;;;;;21.70;12.88;;;;;;;11.26;81.58;99143.28;5049747;28;20016;-72
2022/10/29 03:04:12;;;;;;;21.73;13.40;;;;;;;11.27;81.59;99142.19;5069354;28;20040;-72
2022/10/29 03:06:37;;;;;;;23.05;14.35;;;;;;;11.30;81.94;99129.84;5066621;28;20074;-72
2022/10/29 03:09:03;;;;;;;21.67;12.88;;;;;;;11.27;81.65;99139.44;5068536;28;20024;-72
2022/10/29 03:11:29;;;;;;;23.20;13.80;;;;;;;11.30;82.17;99146.31;5070522;28;20136;-72
2022/10/29 03:13:54;;;;;;;22.38;13.23;;;;;;;11.28;81.62;99137.53;5059760;28;20457;-72
2022/10/29 03:16:20;;;;;;;22.75;13.30;;;;;;;11.28;81.54;99146.56;5064249;28;20024;-72
2022/10/29 03:18:45;;;;;;;23.80;13.82;;;;;;;11.28;81.47;99141.09;5048659;28;20033;-72
2022/10/29 03:21:11;;;;;;;27.00;15.65;;;;;;;11.30;81.32;99151.78;5069046;28;20032;-72
2022/10/29 03:23:36;;;;;;;24.95;14.30;;;;;;;11.30;81.48;99143.56;5051352;28;20510;-72
2022/10/29 03:26:02;;;;;;;20.48;13.27;;;;;;;11.30;81.92;99154.53;5070458;28;20025;-71
2022/10/29 03:28:29;;;;;;;22.70;13.55;;;;;;;11.31;81.60;99148.75;5060972;28;20029;-71
2022/10/29 03:30:54;;;;;;;21.35;13.48;;;;;;;11.31;81.63;99151.50;5059375;28;20051;-72
2022/10/29 03:33:20;;;;;;;21.60;13.57;;;;;;;11.33;81.59;99148.47;5061534;28;20040;-72
2022/10/29 03:35:45;;;;;;;22.63;13.40;;;;;;;11.36;81.93;99149.81;5065247;28;20430;-72
2022/10/29 03:38:10;;;;;;;21.70;13.23;;;;;;;11.37;81.79;99162.47;5067827;28;20030;-72
2022/10/29 03:40:36;;;;;;;23.48;13.35;;;;;;;11.40;82.29;99153.66;5069795;28;20023;-72
2022/10/29 03:43:01;;;;;;;22.55;13.40;;;;;;;11.40;81.65;99159.16;5063698;28;20537;-72
2022/10/29 03:45:26;;;;;;;23.65;12.85;;;;;;;11.40;81.46;99157.22;5057007;28;20028;-72
2022/10/29 03:47:52;;;;;;;21.95;13.18;;;;;;;11.41;81.40;99161.59;5041673;28;20041;-72
2022/10/29 03:50:17;;;;;;;20.55;12.48;;;;;;;11.44;82.08;99172.00;5061245;28;20021;-72
2022/10/29 03:52:43;;;;;;;22.38;13.07;;;;;;;11.45;81.29;99178.34;5060875;28;20045;-71
2022/10/29 03:55:08;;;;;;;20.48;12.05;;;;;;;11.44;81.90;99168.47;5065751;28;20145;-72
2022/10/29 03:57:34;;;;;;;21.67;13.23;;;;;;;11.45;82.06;99164.59;5070032;28;20493;-72
2022/10/29 04:00:03;;;;;;;24.77;13.88;;;;;;;11.43;81.28;99169.56;5056498;28;20497;-72
2022/10/29 04:02:29;;;;;;;22.40;13.02;;;;;;;11.43;81.70;99172.31;5022216;28;20047;-72
2022/10/29 04:04:55;;;;;;;25.17;14.05;;;;;;;11.43;81.58;99166.81;5058750;28;20121;-72
2022/10/29 04:07:20;;;;;;;22.02;12.95;;;;;;;11.42;81.89;99170.66;5063403;28;20023;-73
2022/10/29 04:09:46;;;;;;;24.23;13.07;;;;;;;11.41;81.28;99158.84;5047189;28;20036;-72
2022/10/29 04:12:11;;;;;;;19.45;11.77;;;;;;;11.42;81.60;99167.91;5068871;28;20040;-72
2022/10/29 04:14:36;;;;;;;22.60;12.88;;;;;;;11.43;81.43;99161.31;5069154;28;20020;-72
2022/10/29 04:17:02;;;;;;;19.15;12.30;;;;;;;11.42;81.22;99168.72;5061598;28;20025;-72
2022/10/29 04:19:27;;;;;;;19.20;12.30;;;;;;;11.43;81.32;99164.88;5057753;28;20024;-72
2022/10/29 04:21:52;;;;;;;19.30;11.32;;;;;;;11.45;81.47;99164.59;5060733;28;20025;-72
2022/10/29 04:24:18;;;;;;;17.77;11.40;;;;;;;11.45;81.47;99156.38;5062389;28;20463;-71
2022/10/29 04:26:44;;;;;;;21.27;12.32;;;;;;;11.48;81.60;99164.03;5066937;28;20031;-72
2022/10/29 04:29:09;;;;;;;18.63;11.70;;;;;;;11.47;81.89;99152.22;5067263;28;20020;-72
2022/10/29 04:31:35;;;;;;;18.40;11.07;;;;;;;11.48;81.53;99153.06;5068250;28;20112;-71
2022/10/29 04:34:01;;;;;;;18.65;10.82;;;;;;;11.51;81.90;99132.41;5027768;28;20060;-72
2022/10/29 04:36:27;;;;;;;20.00;10.85;;;;;;;11.54;81.76;99118.13;5040057;28;20033;-71
2022/10/29 04:38:52;;;;;;;17.30;10.40;;;;;;;11.58;82.06;99113.69;5025488;28;20017;-72
2022/10/29 04:41:17;;;;;;;18.38;10.77;;;;;;;11.60;81.38;99119.72;5045633;28;20391;-72
2022/10/29 04:43:43;;;;;;;17.45;9.85;;;;;;;11.63;81.79;99135.63;5048402;28;20052;-72
2022/10/29 04:46:09;;;;;;;15.75;9.68;;;;;;;11.62;81.36;99143.03;5045568;28;20017;-72
2022/10/29 04:48:34;;;;;;;20.92;11.85;;;;;;;11.64;81.16;99134.53;5029810;28;20036;-72
2022/10/29 04:50:59;;;;;;;16.13;9.98;;;;;;;11.65;81.69;99122.44;5030324;28;20013;-73
2022/10/29 04:53:25;;;;;;;17.05;9.93;;;;;;;11.64;81.56;99130.94;5040919;28;20033;-73
2022/10/29 04:55:50;;;;;;;15.90;9.75;;;;;;;11.64;81.17;99126.28;5044544;28;20359;-72
2022/10/29 04:58:17;;;;;;;17.17;10.25;;;;;;;11.65;81.71;99147.16;5046800;28;20017;-72
2022/10/29 05:00:44;;;;;;;15.48;9.18;;;;;;;11.66;81.72;99147.97;5045450;28;20029;-73
2022/10/29 05:03:09;;;;;;;13.70;8.38;;;;;;;11.67;81.47;99166.94;5043846;28;20021;-73
2022/10/29 05:05:37;;;;;;;15.43;9.32;;;;;;;11.68;81.42;99173.22;5048693;28;20029;-73
2022/10/29 05:08:04;;;;;;;14.68;9.07;;;;;;;11.70;81.28;99154.53;5053034;28;20017;-72
2022/10/29 05:10:32;;;;;;;14.73;8.80;;;;;;;11.69;81.51;99155.63;5028347;28;20043;-72
2022/10/29 05:12:59;;;;;;;14.88;9.10;;;;;;;11.69;81.18;99161.97;5047039;28;20021;-72
2022/10/29 05:15:25;;;;;;;13.75;8.65;;;;;;;11.70;81.22;99157.28;5048680;28;21352;-73
2022/10/29 05:17:50;;;;;;;18.05;11.10;;;;;;;11.70;81.22;99152.63;5042126;28;20031;-73
2022/10/29 05:20:16;;;;;;;14.98;8.75;;;;;;;11.71;81.53;99164.41;5043305;28;20029;-73
2022/10/29 05:22:41;;;;;;;17.77;9.38;;;;;;;11.71;81.69;99162.50;5045069;28;20198;-72
2022/10/29 05:25:07;;;;;;;14.85;8.95;;;;;;;11.70;81.55;99162.78;5032918;28;20029;-73
2022/10/29 05:27:32;;;;;;;13.55;8.82;;;;;;;11.69;81.67;99150.97;5043550;28;20033;-73
2022/10/29 05:29:57;;;;;;;19.27;11.75;;;;;;;11.71;81.41;99158.91;5047995;28;20471;-73
2022/10/29 05:32:23;;;;;;;14.48;9.25;;;;;;;11.71;81.29;99154.25;5043940;28;20699;-73
2022/10/29 05:34:48;;;;;;;13.20;8.70;;;;;;;11.71;81.63;99151.50;5042601;28;20029;-73
2022/10/29 05:37:13;;;;;;;16.38;9.90;;;;;;;11.71;81.65;99154.25;5047729;28;20040;-73
2022/10/29 05:39:39;;;;;;;15.73;9.20;;;;;;;11.71;81.25;99151.50;5064046;28;20040;-73
2022/10/29 05:42:05;;;;;;;14.93;8.77;;;;;;;11.71;81.58;99140.53;5070854;28;20501;-71
2022/10/29 05:44:30;;;;;;;16.40;9.43;;;;;;;11.70;82.04;99149.03;5065013;28;20028;-72
2022/10/29 05:46:55;;;;;;;12.82;8.45;;;;;;;11.68;81.78;99154.00;5060961;28;20024;-73
2022/10/29 05:49:21;;;;;;;13.13;8.52;;;;;;;11.70;81.36;99157.28;5055669;28;20466;-73
2022/10/29 05:51:46;;;;;;;14.90;8.98;;;;;;;11.70;81.41;99158.13;5059895;28;20059;-72
2022/10/29 05:54:12;;;;;;;14.00;8.52;;;;;;;11.71;81.78;99150.69;5059479;28;20017;-73
2022/10/29 05:56:37;;;;;;;14.95;8.90;;;;;;;11.72;81.67;99158.66;5062982;28;20028;-73
2022/10/29 05:59:02;;;;;;;15.70;9.23;;;;;;;11.73;81.82;99154.78;5066572;28;20020;-72
2022/10/29 06:01:28;;;;;;;13.25;8.43;;;;;;;11.74;81.98;99163.84;5047729;28;20025;-72
2022/10/29 06:03:53;;;;;;;16.95;9.20;;;;;;;11.75;81.51;99169.06;5036019;28;20029;-72
2022/10/29 06:06:18;;;;;;;12.68;8.07;;;;;;;11.76;81.88;99167.13;5065987;28;20517;-71
2022/10/29 06:08:44;;;;;;;18.20;11.57;;;;;;;11.78;81.46;99167.66;5068769;28;20442;-72
2022/10/29 06:11:09;;;;;;;16.08;9.88;;;;;;;11.81;81.45;99175.34;5074948;28;20029;-72
2022/10/29 06:13:34;;;;;;;17.20;9.38;;;;;;;11.83;81.56;99186.88;5071687;28;20029;-72
2022/10/29 06:16:00;;;;;;;14.25;8.65;;;;;;;11.85;81.48;99187.41;5070874;28;20505;-72
2022/10/29 06:18:26;;;;;;;15.30;8.82;;;;;;;11.86;81.54;99179.97;5072943;28;20025;-72
2022/10/29 06:20:53;;;;;;;15.23;9.55;;;;;;;11.88;81.94;99194.25;5072496;28;20108;-72
2022/10/29 06:23:18;;;;;;;16.13;9.40;;;;;;;11.88;82.07;99186.84;5067488;28;20021;-72
2022/10/29 06:25:44;;;;;;;14.32;9.15;;;;;;;11.89;82.21;99190.38;5068557;28;20521;-72
2022/10/29 06:28:13;;;;;;;13.55;8.57;;;;;;;11.91;81.21;99193.66;5076404;28;20030;-72
2022/10/29 06:30:39;;;;;;;15.57;9.38;;;;;;;11.93;81.57;99187.91;5075840;28;20036;-72
2022/10/29 06:33:05;;;;;;;13.88;8.73;;;;;;;11.95;81.81;99199.44;5070313;28;20044;-72
2022/10/29 06:35:30;;;;;;;15.18;9.63;;;;;;;11.97;81.84;99205.47;5072092;28;20434;-72
2022/10/29 06:37:56;;;;;;;13.30;9.25;;;;;;;11.99;81.33;99198.59;5072546;28;20032;-71
2022/10/29 06:40:22;;;;;;;17.38;9.80;;;;;;;12.00;82.05;99216.72;5069526;28;20514;-72
2022/10/29 06:42:47;;;;;;;14.75;8.93;;;;;;;11.99;81.45;99215.09;5072945;28;20131;-73
2022/10/29 06:45:13;;;;;;;16.38;9.80;;;;;;;12.00;81.85;99205.72;5074659;28;20054;-72
2022/10/29 06:47:43;;;;;;;19.30;10.80;;;;;;;11.97;81.35;99200.78;5070140;28;20093;-72
2022/10/29 06:50:10;;;;;;;16.80;9.65;;;;;;;11.98;81.97;99205.16;5081584;28;20490;-73
2022/10/29 06:52:36;;;;;;;17.75;10.68;;;;;;;11.98;81.43;99202.41;5077329;28;20395;-73
2022/10/29 06:55:03;;;;;;;17.23;9.65;;;;;;;11.99;81.73;99206.00;5082390;28;20039;-71
2022/10/29 06:57:28;;;;;;;18.35;10.18;;;;;;;12.01;81.79;99209.31;5087285;28;20457;-72
2022/10/29 06:59:54;;;;;;;16.40;9.35;;;;;;;12.02;81.88;99210.97;5075704;28;20170;-73
2022/10/29 07:02:21;;;;;;;18.35;9.88;;;;;;;12.03;81.85;99218.06;5069968;28;20048;-72
2022/10/29 07:04:46;;;;;;;16.73;9.93;;;;;;;12.04;81.53;99225.22;5072187;28;20040;-73
2022/10/29 07:07:12;;;;;;;16.10;10.05;;;;;;;12.05;82.03;99235.09;5069519;28;20026;-72
2022/10/29 07:09:37;;;;;;;15.98;9.23;;;;;;;12.09;81.87;99235.34;5072419;28;20031;-73
2022/10/29 07:12:02;;;;;;;17.48;10.05;;;;;;;12.11;81.53;99236.69;5072541;28;20032;-73
2022/10/29 07:14:28;;;;;;;16.73;9.80;;;;;;;12.16;81.22;99242.16;5068304;28;20040;-74
2022/10/29 07:16:53;;;;;;;16.63;9.55;;;;;;;12.18;81.82;99239.94;5083993;28;20021;-72
2022/10/29 07:19:19;;;;;;;16.33;9.30;;;;;;;12.18;81.53;99237.19;5090359;28;20016;-73
2022/10/29 07:21:44;;;;;;;16.33;9.50;;;;;;;12.20;81.31;99245.19;5085009;28;20417;-73
2022/10/29 07:24:09;;;;;;;16.45;9.68;;;;;;;12.21;81.09;99238.56;5080610;28;20103;-73
2022/10/29 07:26:35;;;;;;;15.82;9.02;;;;;;;12.24;81.51;99245.41;5075084;28;20058;-73
2022/10/29 07:29:01;;;;;;;16.55;9.25;;;;;;;12.26;81.46;99245.94;5080745;28;20051;-73
2022/10/29 07:31:28;;;;;;;14.35;8.82;;;;;;;12.29;81.10;99250.88;5072781;28;20024;-73
2022/10/29 07:33:54;;;;;;;22.38;13.02;;;;;;;12.31;81.32;99243.97;5077031;28;20498;-73
2022/10/29 07:36:19;;;;;;;19.35;11.23;;;;;;;12.34;81.40;99253.59;5071915;28;20060;-70
2022/10/29 07:38:45;;;;;;;14.95;9.57;;;;;;;12.38;81.17;99240.91;5091971;28;20049;-72
2022/10/29 07:41:11;;;;;;;17.05;9.82;;;;;;;12.43;80.83;99251.03;5071881;28;20104;-71
2022/10/29 07:43:37;;;;;;;18.13;9.73;;;;;;;12.49;81.13;99249.88;5071886;28;20108;-72
2022/10/29 07:46:02;;;;;;;18.45;9.35;;;;;;;12.55;81.21;99245.13;5078311;28;20087;-72
2022/10/29 07:48:28;;;;;;;14.50;8.85;;;;;;;12.57;80.88;99252.00;5066822;28;20040;-70
2022/10/29 07:50:57;;;;;;;15.32;9.20;;;;;;;12.59;80.90;99249.78;5064934;28;20386;-72
2022/10/29 07:53:22;;;;;;;16.02;10.05;;;;;;;12.61;81.07;99246.72;5041005;28;20131;-72
2022/10/29 07:55:54;;;;;;;35.80;16.33;;;;;;;12.64;81.02;99257.97;5040228;28;20024;-72
2022/10/29 07:58:20;;;;;;;45.63;19.08;;;;;;;12.69;80.89;99270.03;5045618;28;20033;-72
2022/10/29 08:00:45;;;;;;;49.17;21.77;;;;;;;12.71;80.61;99262.31;5048649;28;20033;-73
2022/10/29 08:03:11;;;;;;;34.60;18.00;;;;;;;12.75;81.06;99258.69;5047085;28;20032;-72
2022/10/29 08:05:37;;;;;;;21.02;11.68;;;;;;;12.79;80.30;99265.25;5045716;28;20037;-72
2022/10/29 08:08:03;;;;;;;19.27;10.68;;;;;;;12.85;80.60;99271.53;5046582;28;20067;-73
2022/10/29 08:10:29;;;;;;;19.15;10.73;;;;;;;12.90;80.68;99270.63;5046323;28;20517;-72
2022/10/29 08:13:00;;;;;;;19.98;12.05;;;;;;;12.94;79.95;99271.69;5040428;28;20028;-73
2022/10/29 08:15:27;;;;;;;17.58;10.32;;;;;;;13.00;80.29;99275.25;5036298;28;20310;-73
2022/10/29 08:17:53;;;;;;;16.40;9.80;;;;;;;13.06;80.33;99269.38;5023097;28;20637;-72
2022/10/29 08:20:19;;;;;;;18.40;10.07;;;;;;;13.12;80.23;99267.38;5046469;28;20107;-72
2022/10/29 08:22:45;;;;;;;14.68;9.50;;;;;;;13.20;79.79;99272.22;5045476;28;20554;-73
2022/10/29 08:25:12;;;;;;;18.23;11.43;;;;;;;13.27;79.98;99271.06;5044369;28;20082;-72
2022/10/29 08:27:37;;;;;;;16.52;9.52;;;;;;;13.33;80.09;99276.19;5046059;28;20037;-72
2022/10/29 08:30:04;;;;;;;11.18;7.13;;;;;;;13.40;79.60;99275.88;5045323;28;20153;-73
2022/10/29 08:32:30;;;;;;;10.38;6.80;;;;;;;13.47;79.34;99273.56;5043496;28;20044;-73
2022/10/29 08:34:55;;;;;;;15.95;8.40;;;;;;;13.54;79.64;99270.47;5036294;28;20258;-72
2022/10/29 08:37:21;;;;;;;11.13;6.88;;;;;;;13.61;78.92;99262.66;5036787;28;20593;-72
2022/10/29 08:39:46;;;;;;;9.05;6.30;;;;;;;13.70;78.58;99265.56;5042594;28;20044;-73
2022/10/29 08:42:53;;;;;;;9.43;6.57;;;;;;;13.77;78.66;99267.94;5045727;28;20538;-70
2022/10/29 08:45:48;;;;;;;8.73;5.43;;;;;;;13.88;78.62;99260.34;5044164;28;20281;-71
2022/10/29 08:48:22;;;;;;;10.15;6.07;;;;;;;13.98;77.92;99261.03;5037246;28;20079;-70
2022/10/29 08:51:20;;;;;;;10.27;5.82;;;;;;;14.10;78.76;99270.75;5042537;28;20045;-70
2022/10/29 08:53:48;;;;;;;10.43;5.75;;;;;;;14.23;77.52;99278.28;5036829;28;20080;-71
2022/10/29 08:56:29;;;;;;;8.50;4.90;;;;;;;14.31;76.81;99273.22;5036689;28;20744;-70
2022/10/29 08:59:00;;;;;;;7.15;4.80;;;;;;;14.37;77.08;99272.00;5036922;28;20040;-72
2022/10/29 09:01:26;;;;;;;7.07;5.05;;;;;;;14.43;76.24;99268.03;5038480;28;20536;-70
2022/10/29 09:03:51;;;;;;;7.55;4.60;;;;;;;14.49;76.86;99255.78;5045199;28;20025;-70
2022/10/29 09:06:30;;;;;;;7.20;4.78;;;;;;;14.57;76.63;99262.56;5044106;28;20463;-70
2022/10/29 09:09:01;;;;;;;8.55;4.65;;;;;;;14.67;76.06;99269.84;5045325;28;20035;-69
2022/10/29 09:11:43;;;;;;;7.72;4.82;;;;;;;14.75;74.62;99263.66;5045147;28;20090;-70
2022/10/29 09:14:12;;;;;;;8.68;4.90;;;;;;;14.84;75.76;99270.09;5039591;28;20112;-70
2022/10/29 09:16:47;;;;;;;11.13;6.10;;;;;;;14.94;75.31;99271.00;5037952;28;20031;-68
2022/10/29 09:19:22;;;;;;;7.72;5.55;;;;;;;15.01;75.32;99263.16;5037150;28;20029;-69
2022/10/29 09:21:59;;;;;;;8.90;5.60;;;;;;;15.08;75.92;99271.06;5044361;28;20561;-69
2022/10/29 09:24:46;;;;;;;10.93;6.07;;;;;;;15.20;75.08;99279.63;5045560;28;20036;-69
2022/10/29 09:27:47;;;;;;;8.90;6.07;;;;;;;15.29;75.19;99276.97;5041121;28;20082;-69
2022/10/29 09:30:16;;;;;;;11.88;6.70;;;;;;;15.40;74.44;99277.59;5046334;28;20025;-68
2022/10/29 09:32:45;;;;;;;9.68;5.82;;;;;;;15.44;74.96;99273.88;5046535;28;20051;-69
2022/10/29 09:35:17;;;;;;;10.30;5.97;;;;;;;15.47;74.92;99273.28;5029920;28;20583;-69
2022/10/29 09:37:54;;;;;;;9.20;6.20;;;;;;;15.50;74.27;99277.34;5035584;28;20047;-71
2022/10/29 09:40:33;;;;;;;12.73;6.68;;;;;;;15.55;74.29;99276.44;5035092;28;20647;-71
2022/10/29 09:43:05;;;;;;;11.18;7.05;;;;;;;15.57;73.97;99263.94;5051308;28;20395;-70
2022/10/29 09:45:54;;;;;;;11.48;7.15;;;;;;;15.61;74.40;99264.94;5043574;28;20059;-70
2022/10/29 09:48:24;;;;;;;11.05;6.80;;;;;;;15.67;73.86;99259.31;5043513;28;20028;-70
2022/10/29 09:51:04;;;;;;;10.85;6.63;;;;;;;15.69;73.74;99260.63;5043464;28;20035;-69
2022/10/29 09:53:30;;;;;;;10.50;6.07;;;;;;;15.75;74.14;99256.63;5043908;28;20062;-70
2022/10/29 09:55:55;;;;;;;12.18;6.88;;;;;;;15.83;73.73;99259.78;5043092;28;20386;-71
2022/10/29 09:58:25;;;;;;;11.52;7.18;;;;;;;15.87;73.59;99266.34;5037637;28;20028;-71
2022/10/29 10:00:51;;;;;;;;;;;;;;;15.88;73.35;99268.84;5032155;28;20025;-70
2022/10/29 10:03:39;;;;;;;11.35;6.85;;;;;;;15.90;73.53;99260.19;5038369;28;20405;-69
2022/10/29 10:06:07;;;;;;;18.45;10.38;;;;;;;15.95;73.02;99262.03;5045450;28;20037;-69
2022/10/29 10:08:34;;;;;;;12.98;8.13;;;;;;;15.99;72.17;99258.34;5041955;28;20083;-69
2022/10/29 10:11:01;;;;;;;11.38;7.50;;;;;;;15.97;72.62;99238.47;5042565;28;20033;-68
2022/10/29 10:13:51;;;;;;;12.27;7.72;;;;;;;16.00;71.67;99243.38;5041513;28;20021;-69
2022/10/29 10:16:28;;;;;;;14.15;7.47;;;;;;;15.96;71.72;99231.28;5043585;28;20286;-71
2022/10/29 10:18:54;;;;;;;11.40;7.43;;;;;;;15.96;71.60;99238.75;5037721;28;20128;-71
2022/10/29 10:21:28;;;;;;;11.55;7.15;;;;;;;15.97;71.99;99232.09;5034975;28;20029;-71
2022/10/29 10:23:56;;;;;;;13.63;6.80;;;;;;;16.00;72.00;99237.00;5036887;28;20032;-70
2022/10/29 10:26:28;;;;;;;11.10;7.50;;;;;;;16.02;71.88;99231.97;5044023;28;20024;-69
2022/10/29 10:29:05;;;;;;;12.63;7.45;;;;;;;16.05;71.99;99239.66;5043966;28;20424;-70
2022/10/29 10:31:30;;;;;;;13.15;7.75;;;;;;;16.11;72.43;99232.03;5042695;28;20052;-71
2022/10/29 10:33:56;;;;;;;11.20;7.40;;;;;;;16.19;71.89;99225.75;5041949;28;20483;-71
2022/10/29 10:36:24;;;;;;;13.13;7.20;;;;;;;16.23;71.40;99224.00;5045666;28;20032;-70
2022/10/29 10:38:53;;;;;;;11.60;7.40;;;;;;;16.27;71.47;99227.78;5044886;28;20025;-70
2022/10/29 10:41:29;;;;;;;10.40;6.83;;;;;;;16.25;71.73;99220.94;5034452;28;20029;-70
2022/10/29 10:43:59;;;;;;;14.60;7.65;;;;;;;16.22;70.72;99219.59;5035177;28;20291;-70
2022/10/29 10:46:39;;;;;;;14.32;7.07;;;;;;;16.19;71.16;99218.28;5042561;28;20132;-70
2022/10/29 10:49:15;;;;;;;16.88;8.40;;;;;;;16.18;70.85;99213.88;5042794;28;20056;-70
2022/10/29 10:51:54;;;;;;;12.85;8.05;;;;;;;16.18;71.15;99216.66;5043060;28;20029;-70
2022/10/29 10:54:40;;;;;;;15.90;7.78;;;;;;;16.16;71.13;99218.06;5043929;28;20048;-70
2022/10/29 10:57:12;;;;;;;11.65;7.35;;;;;;;16.14;71.44;99212.88;5047359;28;20029;-76
2022/10/29 11:00:01;;;;;;;13.20;7.43;;;;;;;16.15;70.77;99205.38;5046101;28;20052;-75
2022/10/29 11:02:52;;;;;;;12.55;7.55;;;;;;;16.17;70.54;99209.47;5037875;28;20061;-75
2022/10/29 11:05:19;;;;;;;10.45;7.15;;;;;;;16.19;70.64;99207.22;5038432;28;20124;-75
2022/10/29 11:07:53;;;;;;;13.75;7.50;;;;;;;16.24;71.40;99205.44;5046991;28;20032;-74
2022/10/29 11:10:26;;;;;;;12.82;7.75;;;;;;;16.29;70.16;99200.59;5049846;28;20043;-75
2022/10/29 11:12:55;;;;;;;11.90;6.93;;;;;;;16.31;70.71;99192.78;5047245;28;20025;-76
2022/10/29 11:15:34;;;;;;;11.40;6.87;;;;;;;16.36;71.09;99195.44;5046688;28;20036;-74
2022/10/29 11:18:13;;;;;;;11.15;7.43;;;;;;;16.44;70.93;99204.09;5046893;28;20834;-68
2022/10/29 11:20:42;;;;;;;12.35;7.80;;;;;;;16.50;70.10;99205.59;5044357;28;20025;-72
2022/10/29 11:23:23;;;;;;;11.32;7.60;;;;;;;16.51;70.59;99196.13;5039565;28;20028;-77
2022/10/29 11:26:10;;;;;;;20.38;10.65;;;;;;;16.58;70.77;99192.94;5039387;28;20123;-77
2022/10/29 11:28:46;;;;;;;10.80;7.22;;;;;;;16.62;70.75;99191.97;5050864;28;20920;-78
2022/10/29 11:31:31;;;;;;;12.30;7.38;;;;;;;16.67;70.51;99194.59;5047700;28;20140;-78